Time;durP1;ratioP1;P1;durP2;ratioP2;P2;SDS_P1;SDS_P2;PMS_P1;PMS_P2;Temp;Humidity;BMP_temperature;BMP_pressure;BME280_temperature;BME280_humidity;BME280_pressure;Samples;Min_cycle;Max_cycle;Signal;HPM_P1;HPM_P2
2023/07/14 00:01:33;;;;;;;7.47;2.22;;;;;;;24.82;43.22;101510.72;5018209;28;20033;-63
2023/07/14 00:03:59;;;;;;;3.88;1.50;;;;;;;24.84;43.21;101508.66;5035624;28;20072;-63
2023/07/14 00:06:24;;;;;;;2.88;1.50;;;;;;;24.88;43.38;101512.66;5034590;28;20029;-62
2023/07/14 00:08:51;;;;;;;3.05;1.67;;;;;;;24.92;42.84;101513.09;5035560;28;20104;-62
2023/07/14 00:11:19;;;;;;;2.40;1.15;;;;;;;24.95;42.85;101511.81;5017807;28;20091;-62
2023/07/14 00:13:45;;;;;;;5.93;2.35;;;;;;;24.98;42.61;101511.41;5034358;28;20025;-62
2023/07/14 00:16:18;;;;;;;2.92;1.50;;;;;;;24.97;43.15;101506.97;5018352;28;20030;-62
2023/07/14 00:18:44;;;;;;;2.97;1.45;;;;;;;24.98;42.66;101512.25;5035530;28;20033;-63
2023/07/14 00:21:27;;;;;;;3.30;1.60;;;;;;;24.99;42.89;101513.09;5034464;28;20029;-62
2023/07/14 00:23:57;;;;;;;3.80;1.50;;;;;;;25.00;42.54;101515.63;5034511;28;20040;-62
2023/07/14 00:26:23;;;;;;;5.32;1.45;;;;;;;24.99;43.36;101502.97;5033177;28;20029;-62
2023/07/14 00:28:49;;;;;;;6.30;1.65;;;;;;;25.02;43.38;101509.94;5018503;28;20913;-62
2023/07/14 00:31:19;;;;;;;3.25;1.60;;;;;;;25.00;42.90;101499.19;5044594;28;20041;-62
2023/07/14 00:33:48;;;;;;;2.55;1.40;;;;;;;25.04;43.06;101505.09;5017701;28;20131;-63
2023/07/14 00:36:13;;;;;;;1.98;1.60;;;;;;;25.05;42.81;101504.88;5034264;28;20080;-63
2023/07/14 00:38:42;;;;;;;6.57;2.38;;;;;;;25.07;43.00;101499.22;5017261;28;20041;-60
2023/07/14 00:41:16;;;;;;;3.03;1.42;;;;;;;25.10;42.56;101504.28;5034983;28;20112;-61
2023/07/14 00:43:42;;;;;;;2.60;1.20;;;;;;;25.11;42.63;101504.06;5017251;28;20408;-61
2023/07/14 00:46:09;;;;;;;7.88;1.67;;;;;;;25.13;42.73;101510.19;5017533;28;20032;-61
2023/07/14 00:48:35;;;;;;;3.20;1.10;;;;;;;25.16;42.62;101508.91;5033886;28;20033;-63
2023/07/14 00:51:05;;;;;;;3.72;1.20;;;;;;;25.18;43.11;101510.38;5035640;28;20530;-61
2023/07/14 00:53:34;;;;;;;4.05;2.05;;;;;;;25.20;42.52;101511.06;5053428;28;20408;-61
2023/07/14 00:56:12;;;;;;;2.30;1.45;;;;;;;25.21;42.21;101517.38;5053582;28;20029;-62
2023/07/14 00:58:41;;;;;;;4.32;1.15;;;;;;;25.19;42.51;101508.50;5054686;28;20100;-61
2023/07/14 01:01:08;;;;;;;3.10;1.55;;;;;;;25.24;42.46;101514.19;5036921;28;20436;-61
2023/07/14 01:03:39;;;;;;;6.32;1.52;;;;;;;25.26;42.87;101512.13;5053379;28;20037;-61
2023/07/14 01:06:10;;;;;;;3.63;1.50;;;;;;;25.28;42.69;101507.25;5053286;28;20496;-60
2023/07/14 01:08:46;;;;;;;2.55;1.30;;;;;;;25.27;42.65;101511.03;5036457;28;20045;-61
2023/07/14 01:11:12;;;;;;;6.40;1.75;;;;;;;25.29;42.55;101509.78;5053541;28;20045;-61
2023/07/14 01:13:37;;;;;;;5.50;1.30;;;;;;;25.28;42.89;101502.63;5053473;28;20083;-61
2023/07/14 01:16:03;;;;;;;3.38;1.33;;;;;;;25.28;42.27;101490.78;5053899;28;20057;-62
2023/07/14 01:18:29;;;;;;;4.72;1.38;;;;;;;25.25;42.33;101499.44;5036596;28;20086;-61
2023/07/14 01:20:54;;;;;;;3.70;1.35;;;;;;;25.22;42.02;101495.22;5036233;28;20029;-61
2023/07/14 01:23:36;;;;;;;1.63;1.25;;;;;;;25.17;42.32;101492.28;5053010;28;20522;-61
2023/07/14 01:26:18;;;;;;;4.27;1.37;;;;;;;25.15;42.64;101488.91;5010422;28;20496;-61
2023/07/14 01:28:43;;;;;;;4.57;1.60;;;;;;;25.12;42.20;101494.78;5053124;28;20041;-61
2023/07/14 01:31:12;;;;;;;1.70;1.52;;;;;;;25.08;42.42;101489.91;5053922;28;20040;-61
2023/07/14 01:33:37;;;;;;;2.35;1.38;;;;;;;25.07;42.73;101496.47;5036150;28;20048;-61
2023/07/14 01:36:04;;;;;;;2.22;0.90;;;;;;;25.04;42.27;101495.00;5019139;28;20029;-61
2023/07/14 01:38:29;;;;;;;3.55;1.15;;;;;;;25.03;42.25;101486.97;5054342;28;20045;-61
2023/07/14 01:40:55;;;;;;;5.90;1.50;;;;;;;24.98;42.25;101482.09;5052859;28;20029;-62
2023/07/14 01:43:21;;;;;;;3.20;1.08;;;;;;;24.99;42.43;101477.44;5052823;28;20033;-61
2023/07/14 01:45:56;;;;;;;3.85;1.27;;;;;;;24.92;42.29;101474.72;5052693;28;20032;-61
2023/07/14 01:48:24;;;;;;;5.35;1.30;;;;;;;24.93;42.40;101475.56;5052418;28;20042;-61
2023/07/14 01:50:53;;;;;;;1.90;1.15;;;;;;;24.91;42.36;101475.75;5052364;28;20029;-62
2023/07/14 01:53:25;;;;;;;2.50;1.10;;;;;;;24.89;42.65;101478.72;5035437;28;20120;-61
2023/07/14 01:55:52;;;;;;;2.88;1.10;;;;;;;24.87;42.52;101475.31;5035622;28;20025;-61
2023/07/14 01:58:29;;;;;;;2.92;0.98;;;;;;;24.86;42.47;101476.38;5052465;28;20037;-63
2023/07/14 02:00:56;;;;;;;6.10;1.10;;;;;;;24.84;42.30;101483.97;5035556;28;20033;-61
2023/07/14 02:03:33;;;;;;;3.85;1.40;;;;;;;24.82;42.51;101474.25;5052107;28;20052;-61
2023/07/14 02:05:58;;;;;;;4.03;1.17;;;;;;;24.80;42.54;101476.34;5052341;28;20125;-61
2023/07/14 02:08:24;;;;;;;1.20;1.08;;;;;;;24.74;42.39;101475.25;5052420;28;20061;-62
2023/07/14 02:10:50;;;;;;;2.10;1.23;;;;;;;24.74;42.52;101483.47;5018045;28;20440;-62
2023/07/14 02:13:15;;;;;;;3.72;1.40;;;;;;;24.71;42.47;101480.28;5052410;28;20060;-61
2023/07/14 02:15:40;;;;;;;3.28;1.17;;;;;;;24.67;42.36;101484.50;5053313;28;20033;-62
2023/07/14 02:18:11;;;;;;;2.33;1.63;;;;;;;24.63;42.84;101477.72;5052032;28;20101;-61
2023/07/14 02:20:38;;;;;;;2.38;0.85;;;;;;;24.60;42.07;101470.78;5052217;28;20041;-62
2023/07/14 02:23:05;;;;;;;2.13;0.95;;;;;;;24.56;42.92;101483.22;5035306;28;20029;-61
2023/07/14 02:26:03;;;;;;;3.05;1.20;;;;;;;24.51;42.85;101474.72;5053186;28;20033;-61
2023/07/14 02:28:29;;;;;;;1.80;1.15;;;;;;;24.47;42.09;101465.25;5034797;28;20091;-61
2023/07/14 02:31:00;;;;;;;2.92;1.10;;;;;;;24.43;42.55;101469.44;5052955;28;20052;-62
2023/07/14 02:33:31;;;;;;;4.60;1.40;;;;;;;24.40;42.56;101475.31;5034983;28;20041;-61
2023/07/14 02:36:00;;;;;;;3.72;1.10;;;;;;;24.37;42.16;101469.41;5034980;28;20270;-61
2023/07/14 02:38:26;;;;;;;2.28;0.90;;;;;;;24.33;42.08;101468.97;5051600;28;20071;-62
2023/07/14 02:40:57;;;;;;;1.90;1.08;;;;;;;24.32;43.24;101472.75;5034990;28;20067;-61
2023/07/14 02:43:23;;;;;;;1.23;0.80;;;;;;;24.28;42.59;101466.84;5051294;28;20052;-61
2023/07/14 02:45:57;;;;;;;2.00;0.95;;;;;;;24.26;42.91;101470.84;5034871;28;20025;-61
2023/07/14 02:48:30;;;;;;;5.40;1.27;;;;;;;24.22;42.92;101473.13;5050747;28;20025;-60
2023/07/14 02:50:56;;;;;;;2.67;1.17;;;;;;;24.18;42.25;101471.00;5034754;28;20033;-61
2023/07/14 02:53:22;;;;;;;6.50;1.23;;;;;;;24.16;43.28;101473.09;5035112;28;20542;-61
2023/07/14 02:55:48;;;;;;;4.65;1.30;;;;;;;24.10;43.02;101466.53;5051493;28;20053;-61
2023/07/14 02:58:13;;;;;;;6.25;1.20;;;;;;;24.10;42.57;101466.53;5051245;28;20037;-61
2023/07/14 03:00:38;;;;;;;7.53;1.17;;;;;;;24.09;43.48;101472.19;5051950;28;20382;-61
2023/07/14 03:03:04;;;;;;;1.40;0.95;;;;;;;24.06;42.81;101464.38;5018360;28;20493;-61
2023/07/14 03:05:29;;;;;;;2.05;1.10;;;;;;;24.05;42.88;101470.88;5034782;28;20029;-63
2023/07/14 03:07:55;;;;;;;2.70;1.27;;;;;;;24.02;43.13;101466.66;5051364;28;20025;-61
2023/07/14 03:10:20;;;;;;;2.65;1.02;;;;;;;24.04;43.07;101470.03;5051575;28;20041;-61
2023/07/14 03:12:45;;;;;;;4.20;1.38;;;;;;;24.03;42.94;101459.31;5051106;28;20044;-61
2023/07/14 03:15:11;;;;;;;2.97;1.17;;;;;;;24.00;43.59;101459.69;5052502;28;20033;-61
2023/07/14 03:17:36;;;;;;;4.47;2.05;;;;;;;24.00;42.66;101456.97;5051176;28;20063;-61
2023/07/14 03:20:02;;;;;;;2.75;1.05;;;;;;;24.01;42.75;101453.19;5051398;28;20034;-61
2023/07/14 03:22:30;;;;;;;3.95;1.75;;;;;;;23.97;43.32;101449.16;5052589;28;20048;-61
2023/07/14 03:24:58;;;;;;;1.20;0.98;;;;;;;23.92;43.54;101444.28;5052067;28;20021;-61
2023/07/14 03:27:23;;;;;;;2.38;0.90;;;;;;;23.96;43.29;101455.66;5053689;28;20033;-61
2023/07/14 03:29:49;;;;;;;3.00;1.30;;;;;;;23.95;43.27;101448.53;5052441;28;20108;-62
2023/07/14 03:32:14;;;;;;;5.68;0.77;;;;;;;23.90;43.71;101449.09;5052088;28;20048;-61
2023/07/14 03:34:40;;;;;;;3.72;1.23;;;;;;;23.90;42.79;101440.06;5051022;28;20033;-61
2023/07/14 03:37:06;;;;;;;7.18;1.70;;;;;;;23.89;42.94;101443.84;5052540;28;20032;-61
2023/07/14 03:39:31;;;;;;;2.78;1.33;;;;;;;23.89;43.35;101449.31;5049927;28;20029;-62
2023/07/14 03:41:57;;;;;;;1.95;1.05;;;;;;;23.87;42.84;101440.47;5052373;28;20037;-62
2023/07/14 03:44:23;;;;;;;3.70;1.02;;;;;;;23.88;43.57;101444.88;5051303;28;20056;-62
2023/07/14 03:46:49;;;;;;;3.10;1.25;;;;;;;23.89;43.16;101443.84;5034165;28;20496;-61
2023/07/14 03:49:14;;;;;;;3.30;1.10;;;;;;;23.88;43.63;101439.41;5050872;28;20044;-61
2023/07/14 03:51:40;;;;;;;1.92;1.33;;;;;;;23.89;43.04;101443.84;5034675;28;20036;-62
2023/07/14 03:54:07;;;;;;;4.38;1.83;;;;;;;23.89;43.00;101446.59;5034297;28;20025;-62
2023/07/14 03:56:32;;;;;;;3.35;1.23;;;;;;;23.89;44.38;101441.09;5051960;28;20163;-61
2023/07/14 03:58:58;;;;;;;2.88;1.42;;;;;;;23.89;43.57;101438.38;5051103;28;20053;-62
2023/07/14 04:01:25;;;;;;;0.85;0.73;;;;;;;23.91;43.97;101436.28;5055791;28;20519;-62
2023/07/14 04:03:51;;;;;;;4.70;1.58;;;;;;;23.90;43.67;101429.13;5054599;28;20488;-61
2023/07/14 04:06:16;;;;;;;6.32;1.50;;;;;;;23.90;43.28;101429.13;5056039;28;20037;-61
2023/07/14 04:08:43;;;;;;;2.50;1.40;;;;;;;23.92;43.82;101433.34;5055910;28;20082;-62
2023/07/14 04:11:10;;;;;;;2.45;1.33;;;;;;;23.93;43.66;101437.75;5037802;28;20037;-62
2023/07/14 04:13:35;;;;;;;5.40;0.95;;;;;;;23.93;43.47;101431.44;5054555;28;20032;-61
2023/07/14 04:16:07;;;;;;;1.85;1.30;;;;;;;23.94;43.51;101436.72;5053485;28;20423;-62
2023/07/14 04:18:33;;;;;;;4.78;1.73;;;;;;;23.96;44.06;101436.50;5054438;28;20515;-61
2023/07/14 04:21:24;;;;;;;5.75;1.48;;;;;;;23.97;43.79;101435.47;5037954;28;20037;-62
2023/07/14 04:23:53;;;;;;;2.75;1.30;;;;;;;23.98;43.98;101438.00;5054309;28;20099;-61
2023/07/14 04:26:19;;;;;;;4.10;1.35;;;;;;;24.00;44.09;101435.91;5037702;28;20036;-62
2023/07/14 04:28:44;;;;;;;1.90;1.38;;;;;;;24.04;43.62;101428.13;5054733;28;20048;-62
2023/07/14 04:31:09;;;;;;;4.70;1.33;;;;;;;24.09;43.42;101433.88;5037526;28;20045;-62
2023/07/14 04:33:35;;;;;;;3.20;1.15;;;;;;;24.14;43.82;101434.13;5053979;28;20033;-62
2023/07/14 04:36:00;;;;;;;7.22;1.50;;;;;;;24.16;43.87;101434.75;5053824;28;20035;-62
2023/07/14 04:38:26;;;;;;;3.05;1.15;;;;;;;24.20;43.97;101438.78;5053781;28;20052;-61
2023/07/14 04:40:52;;;;;;;2.53;1.67;;;;;;;24.21;43.50;101440.47;5037463;28;20074;-62
2023/07/14 04:43:18;;;;;;;6.95;1.23;;;;;;;24.24;43.83;101437.31;5055102;28;20110;-62
2023/07/14 04:45:45;;;;;;;5.07;1.20;;;;;;;24.25;43.92;101436.28;5053674;28;20033;-62
2023/07/14 04:48:16;;;;;;;6.05;1.40;;;;;;;24.27;43.36;101425.97;5053462;28;20131;-62
2023/07/14 04:50:44;;;;;;;3.30;1.40;;;;;;;24.27;43.81;101432.28;5027103;28;20146;-61
2023/07/14 04:53:10;;;;;;;4.38;1.98;;;;;;;24.30;43.69;101431.88;5054679;28;20025;-61
2023/07/14 04:55:40;;;;;;;5.07;1.23;;;;;;;24.31;44.00;101427.25;5053485;28;20404;-62
2023/07/14 04:58:06;;;;;;;2.35;1.20;;;;;;;24.33;43.45;101427.88;5053404;28;20029;-61
2023/07/14 05:00:31;;;;;;;4.25;1.38;;;;;;;24.40;43.48;101426.00;5036954;28;20021;-62
2023/07/14 05:02:57;;;;;;;2.30;1.27;;;;;;;24.41;43.59;101424.97;5053355;28;20040;-62
2023/07/14 05:05:24;;;;;;;5.15;1.40;;;;;;;24.53;43.51;101431.56;5054851;28;20596;-61
2023/07/14 05:07:50;;;;;;;5.05;1.92;;;;;;;24.70;43.07;101426.53;5053242;28;20030;-62
2023/07/14 05:10:16;;;;;;;7.97;1.52;;;;;;;24.83;43.34;101427.44;5053042;28;20051;-62
2023/07/14 05:12:42;;;;;;;6.07;1.75;;;;;;;24.98;42.71;101420.94;5053965;28;20035;-62
2023/07/14 05:15:13;;;;;;;1.60;1.08;;;;;;;25.10;43.06;101424.75;5054321;28;20045;-62
2023/07/14 05:17:39;;;;;;;4.93;2.65;;;;;;;25.28;42.50;101414.00;5053093;28;20030;-62
2023/07/14 05:20:12;;;;;;;5.32;1.48;;;;;;;25.44;42.26;101419.91;5036524;28;20463;-61
2023/07/14 05:22:39;;;;;;;5.18;1.90;;;;;;;25.64;42.31;101421.81;5052807;28;20116;-61
2023/07/14 05:25:05;;;;;;;6.63;1.90;;;;;;;25.80;42.06;101419.47;5054298;28;20120;-63
2023/07/14 05:27:31;;;;;;;3.55;1.30;;;;;;;25.96;42.19;101429.97;5053882;28;20467;-62
2023/07/14 05:29:56;;;;;;;2.92;1.45;;;;;;;26.14;41.71;101425.72;5053860;28;20033;-63
2023/07/14 05:32:24;;;;;;;4.45;2.05;;;;;;;26.31;41.57;101421.44;5035636;28;20131;-63
2023/07/14 05:34:51;;;;;;;2.83;1.98;;;;;;;26.43;42.00;101426.06;5038308;28;20033;-63
2023/07/14 05:37:17;;;;;;;1.75;1.02;;;;;;;26.60;41.64;101423.66;5016168;28;20045;-63
2023/07/14 05:39:43;;;;;;;5.30;1.67;;;;;;;26.82;40.69;101419.53;5022703;28;20076;-64
2023/07/14 05:42:09;;;;;;;7.47;1.42;;;;;;;26.97;40.81;101417.28;5035492;28;20497;-65
2023/07/14 05:44:34;;;;;;;5.05;1.33;;;;;;;27.13;40.42;101416.78;5052454;28;20119;-64
2023/07/14 05:47:00;;;;;;;2.95;1.30;;;;;;;27.31;40.62;101412.38;5019372;28;20480;-63
2023/07/14 05:49:25;;;;;;;3.97;1.42;;;;;;;27.44;40.69;101410.41;5035911;28;20073;-61
2023/07/14 05:51:51;;;;;;;3.53;1.25;;;;;;;27.55;40.38;101414.31;5049233;28;20104;-63
2023/07/14 05:54:16;;;;;;;4.00;1.50;;;;;;;27.75;39.78;101423.22;5015865;28;20481;-62
2023/07/14 05:56:42;;;;;;;4.75;1.58;;;;;;;27.72;39.48;101415.44;5015789;28;20064;-62
2023/07/14 05:59:07;;;;;;;2.72;1.40;;;;;;;27.72;39.65;101415.44;5032249;28;20087;-63
2023/07/14 06:01:33;;;;;;;3.92;2.47;;;;;;;27.67;39.44;101413.34;5032739;28;20030;-62
2023/07/14 06:03:59;;;;;;;7.22;1.25;;;;;;;27.82;39.51;101410.22;5033015;28;20029;-62
2023/07/14 06:06:24;;;;;;;11.05;1.60;;;;;;;27.83;39.46;101400.91;5032460;28;20033;-62
2023/07/14 06:08:49;;;;;;;4.03;1.90;;;;;;;28.01;39.62;101405.56;5032559;28;20021;-62
2023/07/14 06:11:15;;;;;;;6.30;2.08;;;;;;;28.13;39.85;101398.25;5033399;28;20040;-62
2023/07/14 06:13:41;;;;;;;4.60;1.45;;;;;;;28.26;39.52;101396.16;5032032;28;20025;-63
2023/07/14 06:16:06;;;;;;;4.15;1.50;;;;;;;28.40;38.84;101398.75;5015939;28;20026;-62
2023/07/14 06:18:31;;;;;;;6.40;1.52;;;;;;;28.54;39.31;101400.25;5032177;28;20040;-62
2023/07/14 06:20:57;;;;;;;7.00;1.67;;;;;;;28.64;39.20;101392.31;5033489;28;20397;-63
2023/07/14 06:23:22;;;;;;;2.85;1.73;;;;;;;28.73;37.99;101388.13;5032695;28;20053;-62
2023/07/14 06:25:48;;;;;;;5.20;1.75;;;;;;;28.71;38.16;101374.56;5032053;28;20112;-63
2023/07/14 06:28:14;;;;;;;4.82;1.65;;;;;;;28.91;38.02;101382.56;5032028;28;20030;-62
2023/07/14 06:30:39;;;;;;;5.03;1.48;;;;;;;28.95;37.77;101386.50;5032007;28;20018;-63
2023/07/14 06:33:04;;;;;;;5.35;1.38;;;;;;;29.21;37.62;101385.25;5015979;28;20503;-62
2023/07/14 06:35:31;;;;;;;4.32;1.52;;;;;;;29.36;37.31;101386.50;5032004;28;20532;-62
2023/07/14 06:37:57;;;;;;;2.72;1.45;;;;;;;29.59;37.11;101382.06;5018861;28;20021;-62
2023/07/14 06:40:24;;;;;;;5.68;2.05;;;;;;;29.77;37.46;101381.91;5035826;28;20028;-62
2023/07/14 06:42:49;;;;;;;1.77;1.30;;;;;;;29.82;37.35;101384.81;5034884;28;20037;-62
2023/07/14 06:45:14;;;;;;;3.45;1.00;;;;;;;29.81;37.00;101372.09;5034171;28;20033;-63
2023/07/14 06:47:40;;;;;;;8.25;1.80;;;;;;;29.93;36.96;101376.50;5035027;28;20049;-62
2023/07/14 06:50:06;;;;;;;6.50;1.63;;;;;;;30.02;36.87;101385.25;5016984;28;20026;-63
2023/07/14 06:52:31;;;;;;;5.00;1.50;;;;;;;29.98;36.93;101379.38;5035105;28;20036;-62
2023/07/14 06:54:57;;;;;;;3.75;1.50;;;;;;;29.98;36.57;101378.56;5031502;28;20036;-62
2023/07/14 06:57:23;;;;;;;6.38;1.70;;;;;;;29.96;36.48;101372.41;5032542;28;20037;-63
2023/07/14 06:59:48;;;;;;;5.47;1.20;;;;;;;29.94;36.44;101378.19;5032813;28;20040;-62
2023/07/14 07:02:14;;;;;;;2.80;1.50;;;;;;;29.99;36.30;101380.22;5031669;28;20034;-63
2023/07/14 07:04:39;;;;;;;3.78;1.27;;;;;;;30.05;36.10;101373.72;5031647;28;20087;-62
2023/07/14 07:07:04;;;;;;;4.18;1.55;;;;;;;30.14;36.00;101376.94;5031362;28;20040;-62
2023/07/14 07:09:30;;;;;;;8.20;1.40;;;;;;;30.19;36.25;101369.59;5032643;28;20041;-63
2023/07/14 07:11:55;;;;;;;2.42;1.75;;;;;;;30.21;36.12;101378.47;5014962;28;20508;-63
2023/07/14 07:14:21;;;;;;;2.63;1.30;;;;;;;30.21;35.95;101370.19;5014875;28;20030;-63
2023/07/14 07:16:46;;;;;;;2.28;1.10;;;;;;;30.14;36.08;101361.22;5031336;28;20037;-63
2023/07/14 07:19:11;;;;;;;6.57;1.90;;;;;;;30.12;36.54;101359.78;5031325;28;20444;-62
2023/07/14 07:21:37;;;;;;;4.50;1.58;;;;;;;30.12;36.33;101363.38;5014741;28;20064;-62
2023/07/14 07:24:06;;;;;;;3.40;1.33;;;;;;;30.17;36.06;101357.97;5031332;28;20121;-62
2023/07/14 07:26:31;;;;;;;5.35;1.70;;;;;;;30.27;35.86;101352.63;5032837;28;20436;-62
2023/07/14 07:28:57;;;;;;;2.83;1.08;;;;;;;30.37;35.96;101350.09;5032559;28;20029;-63
2023/07/14 07:31:22;;;;;;;7.05;1.73;;;;;;;30.43;35.65;101349.09;5031325;28;20042;-63
2023/07/14 07:33:47;;;;;;;4.75;1.00;;;;;;;30.49;35.86;101341.72;5031228;28;20539;-63
2023/07/14 07:36:15;;;;;;;6.82;1.77;;;;;;;30.47;35.87;101350.28;5034849;28;20042;-63
2023/07/14 07:38:43;;;;;;;1.85;1.35;;;;;;;30.45;35.80;101349.72;5018697;28;20034;-62
2023/07/14 07:41:08;;;;;;;4.32;1.40;;;;;;;30.52;35.49;101336.56;5034965;28;20547;-63
2023/07/14 07:43:34;;;;;;;5.35;1.35;;;;;;;30.71;35.39;101328.03;5034931;28;20025;-63
2023/07/14 07:45:59;;;;;;;3.13;1.67;;;;;;;31.02;35.05;101331.09;5036249;28;20033;-62
2023/07/14 07:48:25;;;;;;;3.45;0.98;;;;;;;31.19;34.89;101317.25;5018352;28;20038;-63
2023/07/14 07:50:50;;;;;;;1.50;1.10;;;;;;;31.26;34.58;101320.69;5034927;28;20110;-63
2023/07/14 07:53:16;;;;;;;2.45;1.42;;;;;;;31.31;34.64;101314.38;5034964;28;20025;-63
2023/07/14 07:55:41;;;;;;;2.83;1.45;;;;;;;31.30;34.36;101316.31;5018526;28;20040;-62
2023/07/14 07:58:07;;;;;;;7.78;1.67;;;;;;;31.28;34.53;101318.50;5034962;28;20058;-62
2023/07/14 08:00:32;;;;;;;2.75;0.98;;;;;;;31.30;34.70;101324.63;5036199;28;20061;-63
2023/07/14 08:02:58;;;;;;;2.33;1.40;;;;;;;31.25;34.56;101319.00;5035858;28;20446;-63
2023/07/14 08:05:25;;;;;;;3.33;1.50;;;;;;;31.43;34.25;101315.97;5036061;28;20033;-62
2023/07/14 08:07:50;;;;;;;2.67;1.38;;;;;;;31.70;33.94;101310.53;5018424;28;20126;-63
2023/07/14 08:10:15;;;;;;;4.68;1.38;;;;;;;31.80;33.66;101315.41;5034389;28;20129;-63
2023/07/14 08:12:41;;;;;;;3.08;1.23;;;;;;;31.95;33.77;101312.81;5035786;28;20038;-62
2023/07/14 08:15:09;;;;;;;3.22;0.93;;;;;;;32.16;33.74;101298.13;5036008;28;20131;-63
2023/07/14 08:17:52;;;;;;;2.78;1.27;;;;;;;32.61;33.31;101295.84;5035658;28;20113;-62
2023/07/14 08:20:18;;;;;;;3.03;1.10;;;;;;;32.64;32.73;101295.31;5034600;28;20041;-63
2023/07/14 08:22:43;;;;;;;2.88;1.02;;;;;;;32.56;32.71;101304.13;5034557;28;20034;-62
2023/07/14 08:25:09;;;;;;;5.20;1.20;;;;;;;32.51;33.38;101301.25;5034459;28;20061;-63
2023/07/14 08:27:34;;;;;;;2.22;1.63;;;;;;;32.58;32.93;101301.09;5035539;28;20033;-63
2023/07/14 08:29:59;;;;;;;5.72;1.98;;;;;;;32.57;33.44;101294.69;5017652;28;20393;-63
2023/07/14 08:32:25;;;;;;;5.63;1.95;;;;;;;32.56;32.71;101287.47;5035220;28;20045;-63
2023/07/14 08:34:50;;;;;;;3.55;1.05;;;;;;;32.53;33.41;101293.50;5017831;28;20065;-63
2023/07/14 08:37:15;;;;;;;3.35;1.30;;;;;;;32.84;32.18;101292.72;5017547;28;20378;-63
2023/07/14 08:39:41;;;;;;;4.85;1.58;;;;;;;33.09;32.91;101294.03;5035308;28;20034;-63
2023/07/14 08:42:15;;;;;;;8.07;1.58;;;;;;;33.47;31.69;101290.97;5017447;28;20025;-63
2023/07/14 08:45:01;;;;;;;2.60;1.02;;;;;;;33.22;31.98;101288.03;5034143;28;20053;-63
2023/07/14 08:47:47;;;;;;;1.90;0.98;;;;;;;33.47;31.29;101282.63;5034124;28;20034;-63
2023/07/14 08:50:20;;;;;;;5.10;1.45;;;;;;;33.81;31.91;101283.09;5033559;28;20045;-63
2023/07/14 08:52:48;;;;;;;3.95;1.40;;;;;;;34.05;31.22;101280.66;5017230;28;20034;-63
2023/07/14 08:55:16;;;;;;;7.00;2.95;;;;;;;34.14;31.57;101279.06;5033576;28;20037;-63
2023/07/14 08:57:45;;;;;;;4.30;1.45;;;;;;;34.42;30.46;101273.00;5033646;28;20030;-63
2023/07/14 09:00:17;;;;;;;3.47;1.30;;;;;;;34.72;30.02;101275.84;5017054;28;20040;-63
2023/07/14 09:02:52;;;;;;;3.70;1.08;;;;;;;34.84;30.55;101268.00;5017067;28;20121;-63
2023/07/14 09:05:23;;;;;;;1.92;1.10;;;;;;;34.91;30.79;101260.22;5033424;28;20041;-63
2023/07/14 09:07:49;;;;;;;4.63;1.15;;;;;;;35.07;30.35;101259.13;5016910;28;20026;-63
2023/07/14 09:10:15;;;;;;;2.15;1.13;;;;;;;35.19;29.30;101261.59;5033537;28;20029;-62
2023/07/14 09:12:51;;;;;;;1.65;1.05;;;;;;;35.23;29.68;101253.53;5034924;28;20075;-63
2023/07/14 09:15:21;;;;;;;2.88;1.30;;;;;;;35.45;29.40;101259.59;5033207;28;20049;-63
2023/07/14 09:18:17;;;;;;;4.10;1.15;;;;;;;35.88;29.64;101246.88;5033361;28;20084;-63
2023/07/14 09:21:13;;;;;;;1.40;1.13;;;;;;;36.17;28.23;101229.16;5034344;28;20088;-63
2023/07/14 09:24:19;;;;;;;2.28;1.45;;;;;;;36.20;28.47;101231.38;5034484;28;20440;-63
2023/07/14 09:26:48;;;;;;;11.32;2.08;;;;;;;36.11;28.65;101224.72;5032957;28;20033;-63
2023/07/14 09:29:20;;;;;;;1.55;1.45;;;;;;;36.28;27.92;101223.50;5033148;28;20087;-63
2023/07/14 09:31:55;;;;;;;3.72;1.25;;;;;;;36.44;27.97;101211.06;5032432;28;20132;-64
2023/07/14 09:34:28;;;;;;;2.92;1.45;;;;;;;36.83;28.17;101225.84;5034160;28;20017;-63
2023/07/14 09:36:54;;;;;;;3.67;1.40;;;;;;;37.20;27.27;101226.03;5033008;28;20121;-64
2023/07/14 09:39:28;;;;;;;2.22;1.40;;;;;;;37.41;27.06;101220.22;5016574;28;20033;-63
2023/07/14 09:41:55;;;;;;;2.53;1.85;;;;;;;37.64;27.28;101209.03;5032918;28;20034;-63
2023/07/14 09:44:22;;;;;;;3.33;1.30;;;;;;;37.91;26.51;101204.78;5032815;28;20539;-64
2023/07/14 09:46:48;;;;;;;3.92;2.05;;;;;;;38.09;26.43;101207.56;5032489;28;20163;-63
2023/07/14 09:49:35;;;;;;;5.40;1.27;;;;;;;38.37;25.99;101212.19;5016048;28;20112;-63
2023/07/14 09:52:01;;;;;;;2.03;1.10;;;;;;;38.50;26.72;101206.97;5032420;28;20037;-62
2023/07/14 09:54:26;;;;;;;2.38;1.33;;;;;;;38.65;26.46;101210.31;5033696;28;20033;-62
2023/07/14 09:57:00;;;;;;;2.58;1.00;;;;;;;38.66;26.01;101199.94;5032017;28;20088;-62
2023/07/14 09:59:25;;;;;;;2.95;1.23;;;;;;;38.82;25.15;101192.94;5033655;28;20527;-62
2023/07/14 10:01:56;;;;;;;4.10;1.45;;;;;;;39.02;25.37;101184.16;5032617;28;20045;-64
2023/07/14 10:04:27;;;;;;;3.38;1.55;;;;;;;39.06;25.01;101184.38;5033850;28;20037;-62
2023/07/14 10:06:53;;;;;;;8.32;7.82;;;;;;;39.58;25.24;101190.28;5032367;28;20030;-64
2023/07/14 10:09:22;;;;;;;17.38;16.27;;;;;;;40.32;24.62;101185.22;5032608;28;20475;-63
2023/07/14 10:11:50;;;;;;;4.10;2.25;;;;;;;41.05;23.82;101183.88;5032215;28;20049;-62
2023/07/14 10:14:35;;;;;;;1.45;1.25;;;;;;;41.83;22.96;101173.69;5015590;28;20040;-63
2023/07/14 10:17:00;;;;;;;4.93;1.70;;;;;;;42.79;22.49;101171.31;5033939;28;20060;-62
2023/07/14 10:19:40;;;;;;;4.65;1.58;;;;;;;43.01;21.80;101159.81;5015986;28;20505;-62
2023/07/14 10:22:17;;;;;;;2.45;1.50;;;;;;;41.92;22.72;101158.47;5033144;28;20033;-63
2023/07/14 10:24:56;;;;;;;2.58;1.58;;;;;;;40.91;23.26;101163.47;5035507;28;20048;-62
2023/07/14 10:27:30;;;;;;;6.15;1.55;;;;;;;40.72;23.14;101155.25;5051849;28;20147;-62
2023/07/14 10:30:32;;;;;;;5.70;1.98;;;;;;;40.85;23.41;101161.94;5035134;28;20032;-62
2023/07/14 10:32:59;;;;;;;8.55;2.35;;;;;;;40.99;23.40;101155.09;5051955;28;20090;-64
2023/07/14 10:35:28;;;;;;;3.75;1.98;;;;;;;41.23;22.93;101149.06;5052076;28;20033;-63
2023/07/14 10:38:02;;;;;;;3.63;1.80;;;;;;;41.23;23.09;101135.00;5051965;28;20443;-61
2023/07/14 10:40:33;;;;;;;2.58;2.05;;;;;;;41.28;23.09;101125.56;5051814;28;20132;-61
2023/07/14 10:43:03;;;;;;;1.83;1.30;;;;;;;41.06;22.45;101120.88;5052001;28;20500;-62
2023/07/14 10:45:29;;;;;;;5.43;2.17;;;;;;;40.61;22.97;101115.38;5034716;28;20051;-62
2023/07/14 10:47:59;;;;;;;4.07;2.10;;;;;;;40.68;22.62;101110.09;5035403;28;20044;-62
2023/07/14 10:50:29;;;;;;;5.10;2.85;;;;;;;41.33;22.23;101112.19;5035111;28;20041;-62
2023/07/14 10:53:07;;;;;;;3.25;2.60;;;;;;;41.80;22.05;101107.63;5035899;28;20040;-60
2023/07/14 10:55:33;;;;;;;1.60;1.30;;;;;;;41.63;22.07;101108.41;5052170;28;20076;-60
2023/07/14 10:58:09;;;;;;;2.17;1.65;;;;;;;41.42;22.07;101098.97;5051245;28;20531;-61
2023/07/14 11:00:45;;;;;;;4.50;2.17;;;;;;;41.45;22.03;101101.13;5030970;28;20403;-63
2023/07/14 11:03:34;;;;;;;2.97;1.60;;;;;;;41.46;22.33;101085.09;5052614;28;20029;-61
2023/07/14 11:06:04;;;;;;;3.30;1.45;;;;;;;41.79;22.12;101080.66;5052746;28;20048;-62
2023/07/14 11:08:32;;;;;;;2.40;1.50;;;;;;;41.62;22.09;101080.63;5052645;28;20021;-61
2023/07/14 11:11:41;;;;;;;6.60;1.52;;;;;;;41.30;22.63;101087.50;5038953;28;20021;-63
2023/07/14 11:14:21;;;;;;;2.13;1.38;;;;;;;41.14;22.72;101077.88;5055938;28;20068;-61
2023/07/14 11:17:12;;;;;;;3.90;1.27;;;;;;;41.00;22.10;101083.63;5056668;28;20037;-63
2023/07/14 11:20:04;;;;;;;2.47;1.35;;;;;;;40.95;22.68;101082.97;5053491;28;20039;-61
2023/07/14 11:23:08;;;;;;;3.53;2.15;;;;;;;40.54;22.65;101091.72;5039029;28;20033;-61
2023/07/14 11:25:45;;;;;;;2.30;1.40;;;;;;;40.53;22.72;101074.00;5056441;28;20041;-62
2023/07/14 11:28:34;;;;;;;6.95;1.60;;;;;;;39.88;22.49;101070.91;5056311;28;20064;-61
2023/07/14 11:31:01;;;;;;;2.15;1.30;;;;;;;39.49;23.05;101067.91;5038718;28;20095;-61
2023/07/14 11:33:38;;;;;;;6.28;1.90;;;;;;;39.68;22.46;101074.22;5038886;28;20045;-61